L77 weather

Chiriaco Summit Airport
Chiriaco Summit, California, United States

Public forecast

Using degrees Fahrenheit for public forecast. Weather courtesy of forecast.io.

METAR (pilot weather report)

Closest report is Jacqueline Cochran Regional Airport, 22.6 nm (41.8 km) W. Retrieved 2019/06/19 10:52 UTC (16 minutes ago):

KTRM 191052Z AUTO 00000KT 10SM CLR 24/17 A2979 RMK AO2 SLP090 T02440167

TAF (pilot weather forecast)

Closest forecast is Jacqueline Cochran Regional Airport, 22.6 nm (41.8 km) W. Retrieved 2019/06/19 06:22 UTC (5 hours ago):

TAF KTRM 190520Z 1906/2006 33008KT P6SM SKC FM191600 14011KT P6SM SKC FM200400 33010KT P6SM SKC